createdAt,value
2022-08-29T00:00:23.801Z,99444.69
2022-08-29T00:02:55.455Z,99447.25
2022-08-29T00:05:26.712Z,99444.03
2022-08-29T00:07:55.577Z,99450.63
2022-08-29T00:10:24.218Z,99440.12
2022-08-29T00:12:53.008Z,99439.94
2022-08-29T00:15:23.927Z,99445.22
2022-08-29T00:17:52.674Z,99440.97
2022-08-29T00:20:30.223Z,99442.22
2022-08-29T00:23:03.109Z,99443.81
2022-08-29T00:25:32.178Z,99442.34
2022-08-29T00:28:01.118Z,99444.75
2022-08-29T00:30:32.294Z,99442.22
2022-08-29T00:33:01.088Z,99441.16
2022-08-29T00:35:32.396Z,99440.84
2022-08-29T00:38:01.890Z,99440.00
2022-08-29T00:40:32.990Z,99445.50
2022-08-29T00:43:02.340Z,99445.84
2022-08-29T00:45:33.432Z,99453.72
2022-08-29T00:48:05.453Z,99466.25
2022-08-29T00:50:38.129Z,99451.03
2022-08-29T00:53:10.181Z,99461.59
2022-08-29T00:55:40.330Z,99457.66
2022-08-29T00:58:13.360Z,99461.59
2022-08-29T01:00:47.641Z,99461.25
2022-08-29T01:03:16.401Z,99470.94
2022-08-29T01:05:46.281Z,99469.53
2022-08-29T01:08:15.168Z,99460.13
2022-08-29T01:11:01.446Z,99457.66
2022-08-29T01:13:35.041Z,99459.37
2022-08-29T01:16:06.840Z,99461.06
2022-08-29T01:18:38.265Z,99462.91
2022-08-29T01:21:14.777Z,99460.16
2022-08-29T01:23:47.315Z,99470.50
2022-08-29T01:26:17.735Z,99463.81
2022-08-29T01:28:49.562Z,99469.59
2022-08-29T01:31:37.876Z,99477.16
2022-08-29T01:34:11.532Z,99477.94
2022-08-29T01:36:43.565Z,99478.47
2022-08-29T01:39:12.749Z,99471.28
2022-08-29T01:41:43.488Z,99472.97
2022-08-29T01:44:13.197Z,99471.75
2022-08-29T01:46:41.838Z,99476.91
2022-08-29T01:49:11.771Z,99464.38
2022-08-29T01:51:41.684Z,99465.31
2022-08-29T01:54:12.287Z,99464.16
2022-08-29T01:56:44.504Z,99471.72
2022-08-29T01:59:16.332Z,99464.94
2022-08-29T02:01:48.766Z,99470.34
2022-08-29T02:04:17.818Z,99482.19
2022-08-29T02:06:46.426Z,99469.25
2022-08-29T02:09:17.344Z,99468.97
2022-08-29T02:11:48.285Z,99471.88
2022-08-29T02:14:19.461Z,99474.81
2022-08-29T02:16:49.008Z,99467.19
2022-08-29T02:19:19.285Z,99460.78
2022-08-29T02:21:48.204Z,99460.78
2022-08-29T02:24:26.231Z,99464.47
2022-08-29T02:26:57.796Z,99458.16
2022-08-29T02:29:26.489Z,99454.88
2022-08-29T02:32:08.019Z,99463.62
2022-08-29T02:34:37.073Z,99458.44
2022-08-29T02:37:07.518Z,99447.84
2022-08-29T02:39:36.182Z,99446.91
2022-08-29T02:42:06.905Z,99447.84
2022-08-29T02:44:35.770Z,99446.44
2022-08-29T02:47:04.711Z,99445.50
2022-08-29T02:49:33.378Z,99451.44
2022-08-29T02:52:06.729Z,99449.31
2022-08-29T02:54:35.871Z,99444.63
2022-08-29T02:57:07.077Z,99448.31
2022-08-29T02:59:35.947Z,99454.44
2022-08-29T03:02:05.494Z,99448.97
2022-08-29T03:04:36.007Z,99452.22
2022-08-29T03:07:05.551Z,99450.94
2022-08-29T03:09:34.336Z,99451.13
2022-08-29T03:12:02.994Z,99458.28
2022-08-29T03:14:33.219Z,99451.47
2022-08-29T03:17:01.832Z,99461.66
2022-08-29T03:19:30.452Z,99460.19
2022-08-29T03:22:00.474Z,99462.94
2022-08-29T03:24:29.232Z,99464.22
2022-08-29T03:26:58.764Z,99465.91
2022-08-29T03:29:28.030Z,99476.53
2022-08-29T03:31:58.742Z,99480.41
2022-08-29T03:34:27.918Z,99484.09
2022-08-29T03:36:56.860Z,99491.25
2022-08-29T03:39:25.733Z,99495.00
2022-08-29T03:41:54.682Z,99492.97
2022-08-29T03:44:24.505Z,99493.53
2022-08-29T03:46:53.944Z,99491.22
2022-08-29T03:49:24.875Z,99499.19
2022-08-29T03:51:53.486Z,99503.94
2022-08-29T03:54:22.735Z,99508.25
2022-08-29T03:56:51.583Z,99514.81
2022-08-29T03:59:21.125Z,99516.84
2022-08-29T04:01:50.763Z,99526.22
2022-08-29T04:04:34.921Z,99529.53
2022-08-29T04:07:06.415Z,99529.91
2022-08-29T04:09:35.305Z,99535.25
2022-08-29T04:12:04.499Z,99533.09
2022-08-29T04:14:33.649Z,99524.34
2022-08-29T04:17:04.300Z,99530.38
2022-08-29T04:19:33.393Z,99521.50
2022-08-29T04:22:02.297Z,99533.84
2022-08-29T04:24:32.864Z,99524.81
2022-08-29T04:27:01.573Z,99533.38
2022-08-29T04:29:30.452Z,99530.72
2022-08-29T04:31:59.104Z,99532.47
2022-08-29T04:34:27.866Z,99537.81
2022-08-29T04:36:56.818Z,99541.78
2022-08-29T04:39:27.052Z,99542.25
2022-08-29T04:41:57.307Z,99552.16
2022-08-29T04:44:25.933Z,99545.34
2022-08-29T04:46:54.578Z,99541.66
2022-08-29T04:49:23.507Z,99542.06
2022-08-29T04:51:53.783Z,99551.19
2022-08-29T04:54:22.405Z,99548.75
2022-08-29T04:56:51.374Z,99551.84
2022-08-29T04:59:27.654Z,99545.88
2022-08-29T05:01:57.408Z,99554.22
2022-08-29T05:04:26.344Z,99551.50
2022-08-29T05:06:54.956Z,99557.50
2022-08-29T05:09:23.943Z,99553.72
2022-08-29T05:11:52.622Z,99553.38
2022-08-29T05:14:21.226Z,99551.09
2022-08-29T05:16:51.560Z,99552.53
2022-08-29T05:19:20.585Z,99556.03
2022-08-29T05:21:50.032Z,99562.12
2022-08-29T05:24:19.545Z,99547.50
2022-08-29T05:26:48.155Z,99561.47
2022-08-29T05:29:16.922Z,99562.97
2022-08-29T05:31:46.288Z,99563.38
2022-08-29T05:34:34.020Z,99564.22
2022-08-29T05:37:05.919Z,99560.63
2022-08-29T05:39:35.371Z,99562.22
2022-08-29T05:42:05.249Z,99563.31
2022-08-29T05:44:35.625Z,99568.28
2022-08-29T05:47:05.446Z,99565.50
2022-08-29T05:49:36.599Z,99572.94
2022-08-29T05:52:06.756Z,99569.81
2022-08-29T05:54:38.138Z,99568.59
2022-08-29T05:57:07.363Z,99572.75
2022-08-29T05:59:36.422Z,99577.81
2022-08-29T06:02:06.040Z,99575.09
2022-08-29T06:04:36.607Z,99573.22
2022-08-29T06:07:05.857Z,99576.66
2022-08-29T06:09:35.450Z,99580.97
2022-08-29T06:12:05.046Z,99576.00
2022-08-29T06:14:33.903Z,99583.63
2022-08-29T06:17:02.818Z,99587.66
2022-08-29T06:19:35.045Z,99581.69
2022-08-29T06:22:09.565Z,99591.53
2022-08-29T06:24:40.499Z,99602.69
2022-08-29T06:27:14.112Z,99596.72
2022-08-29T06:29:43.950Z,99606.56
2022-08-29T06:32:12.790Z,99598.63
2022-08-29T06:34:41.936Z,99605.56
2022-08-29T06:37:12.749Z,99607.34
2022-08-29T06:39:41.595Z,99604.44
2022-08-29T06:42:10.425Z,99611.22
2022-08-29T06:44:44.364Z,99615.44
2022-08-29T06:47:13.306Z,99617.63
2022-08-29T06:49:42.194Z,99609.81
2022-08-29T06:52:13.410Z,99608.00
2022-08-29T06:54:42.299Z,99620.37
2022-08-29T06:57:13.204Z,99628.16
2022-08-29T06:59:42.151Z,99622.97
2022-08-29T07:02:10.835Z,99623.41
2022-08-29T07:04:39.518Z,99619.72
2022-08-29T07:07:08.598Z,99622.66
2022-08-29T07:09:41.039Z,99626.69
2022-08-29T07:12:09.882Z,99625.84
2022-08-29T07:14:38.822Z,99634.78
2022-08-29T07:17:07.529Z,99627.25
2022-08-29T07:19:36.400Z,99631.81
2022-08-29T07:22:08.089Z,99627.56
2022-08-29T07:24:38.353Z,99623.41
2022-08-29T07:27:07.500Z,99628.63
2022-08-29T07:29:36.160Z,99635.53
2022-08-29T07:32:05.242Z,99630.84
2022-08-29T07:34:34.216Z,99632.66
2022-08-29T07:37:05.783Z,99641.69
2022-08-29T07:39:35.065Z,99633.06
2022-08-29T07:42:05.460Z,99640.88
2022-08-29T07:44:34.785Z,99636.66
2022-08-29T07:47:03.707Z,99629.41
2022-08-29T07:49:40.919Z,99633.53
2022-08-29T07:52:10.220Z,99639.34
2022-08-29T07:54:38.915Z,99640.31
2022-08-29T07:57:08.871Z,99636.53
2022-08-29T07:59:38.141Z,99631.66
2022-08-29T08:02:06.902Z,99628.16
2022-08-29T08:04:35.921Z,99629.47
2022-08-29T08:07:05.035Z,99637.91
2022-08-29T08:09:42.667Z,99650.78
2022-08-29T08:12:12.643Z,99654.44
2022-08-29T08:14:41.308Z,99650.63
2022-08-29T08:17:10.210Z,99663.59
2022-08-29T08:19:39.457Z,99656.78
2022-08-29T08:22:08.075Z,99652.72
2022-08-29T08:24:37.046Z,99655.94
2022-08-29T08:27:06.146Z,99657.78
2022-08-29T08:29:36.350Z,99656.16
2022-08-29T08:32:05.442Z,99644.00
2022-08-29T08:34:35.812Z,99649.38
2022-08-29T08:37:08.211Z,99656.94
2022-08-29T08:39:37.259Z,99652.41
2022-08-29T08:42:13.608Z,99650.25
2022-08-29T08:45:06.859Z,99650.87
2022-08-29T08:47:40.308Z,99650.22
2022-08-29T08:50:13.525Z,99655.81
2022-08-29T08:52:47.097Z,99656.91
2022-08-29T08:55:25.592Z,99656.19
2022-08-29T08:58:02.550Z,99652.88
2022-08-29T09:00:38.883Z,99652.16
2022-08-29T09:03:18.036Z,99652.75
2022-08-29T09:05:58.724Z,99651.31
2022-08-29T09:08:29.281Z,99654.53
2022-08-29T09:11:01.848Z,99648.41
2022-08-29T09:13:38.641Z,99652.97
2022-08-29T09:16:16.444Z,99644.53
2022-08-29T09:18:53.914Z,99647.69
2022-08-29T09:21:42.279Z,99645.59
2022-08-29T09:24:15.976Z,99643.69
2022-08-29T09:26:44.705Z,99641.25
2022-08-29T09:29:14.161Z,99639.09
2022-08-29T09:31:44.712Z,99642.25
2022-08-29T09:34:15.577Z,99647.19
2022-08-29T09:36:47.913Z,99643.81
2022-08-29T09:39:21.478Z,99637.47
2022-08-29T09:41:52.941Z,99648.03
2022-08-29T09:44:25.977Z,99647.53
2022-08-29T09:47:14.586Z,99638.84
2022-08-29T09:50:03.775Z,99653.13
2022-08-29T09:52:32.704Z,99655.41
2022-08-29T09:55:19.107Z,99650.56
2022-08-29T09:57:51.599Z,99644.50
2022-08-29T10:00:26.997Z,99642.47
2022-08-29T10:02:59.361Z,99643.56
2022-08-29T10:05:36.162Z,99650.53
2022-08-29T10:08:06.841Z,99659.09
2022-08-29T10:10:36.575Z,99655.53
2022-08-29T10:13:10.196Z,99646.81
2022-08-29T10:15:50.791Z,99653.47
2022-08-29T10:18:34.106Z,99640.81
2022-08-29T10:21:17.784Z,99653.00
2022-08-29T10:23:56.395Z,99654.53
2022-08-29T10:26:33.386Z,99657.69
2022-08-29T10:29:09.559Z,99653.66
2022-08-29T10:31:41.484Z,99658.47
2022-08-29T10:34:22.552Z,99656.50
2022-08-29T10:36:55.977Z,99655.09
2022-08-29T10:39:34.411Z,99653.44
2022-08-29T10:42:07.424Z,99648.53
2022-08-29T10:44:44.627Z,99652.22
2022-08-29T10:47:30.040Z,99657.87
2022-08-29T10:50:12.853Z,99650.16
2022-08-29T10:52:54.130Z,99642.47
2022-08-29T10:55:32.441Z,99636.03
2022-08-29T10:58:04.902Z,99637.06
2022-08-29T11:00:40.973Z,99633.19
2022-08-29T11:03:15.241Z,99635.75
2022-08-29T11:05:48.114Z,99630.50
2022-08-29T11:08:22.877Z,99629.81
2022-08-29T11:10:53.489Z,99635.06
2022-08-29T11:13:26.032Z,99624.28
2022-08-29T11:16:02.109Z,99632.81
2022-08-29T11:18:35.302Z,99626.75
2022-08-29T11:21:29.020Z,99628.81
2022-08-29T11:24:03.512Z,99622.13
2022-08-29T11:26:42.825Z,99616.47
2022-08-29T11:29:17.463Z,99622.22
2022-08-29T11:48:47.658Z,99610.75
2022-08-29T11:51:35.952Z,99610.75
2022-08-29T11:54:54.085Z,99618.53
2022-08-29T11:57:48.912Z,99620.97
2022-08-29T12:00:51.359Z,99618.41
2022-08-29T12:03:56.080Z,99610.84
2022-08-29T12:06:53.902Z,99603.69
2022-08-29T12:09:32.640Z,99606.94
2022-08-29T12:12:36.023Z,99603.72
2022-08-29T12:15:46.050Z,99611.87
2022-08-29T12:18:45.774Z,99609.91
2022-08-29T12:21:45.593Z,99600.31
2022-08-29T12:24:38.855Z,99591.22
2022-08-29T12:27:23.091Z,99586.69
2022-08-29T12:29:53.351Z,99591.88
2022-08-29T12:32:40.152Z,99593.91
2022-08-29T12:35:42.315Z,99582.63
2022-08-29T12:38:28.123Z,99594.34
2022-08-29T12:41:07.101Z,99588.59
2022-08-29T12:43:39.821Z,99581.34
2022-08-29T12:46:14.073Z,99581.78
2022-08-29T12:48:56.129Z,99580.28
2022-08-29T12:51:39.121Z,99579.94
2022-08-29T12:54:11.334Z,99573.69
2022-08-29T12:56:43.571Z,99571.09
2022-08-29T12:59:18.860Z,99562.84
2022-08-29T13:01:49.511Z,99557.06
2022-08-29T13:04:21.914Z,99550.72
2022-08-29T13:06:56.189Z,99553.28
2022-08-29T13:09:28.058Z,99557.03
2022-08-29T13:12:11.626Z,99547.91
2022-08-29T13:14:52.745Z,99547.31
2022-08-29T13:17:23.573Z,99546.59
2022-08-29T13:20:30.006Z,99549.03
2022-08-29T13:23:20.834Z,99544.37
2022-08-29T13:25:54.619Z,99545.13
2022-08-29T13:28:29.866Z,99551.50
2022-08-29T13:31:22.542Z,99552.06
2022-08-29T13:34:22.011Z,99547.00
2022-08-29T13:37:10.496Z,99538.88
2022-08-29T13:39:47.014Z,99539.19
2022-08-29T13:42:23.966Z,99539.47
2022-08-29T13:45:05.771Z,99530.88
2022-08-29T13:47:43.409Z,99544.97
2022-08-29T13:50:15.210Z,99542.47
2022-08-29T13:52:44.122Z,99531.53
2022-08-29T13:55:12.819Z,99531.81
2022-08-29T13:57:44.512Z,99525.59
2022-08-29T14:00:14.608Z,99529.13
2022-08-29T14:02:45.409Z,99526.47
2022-08-29T14:05:14.645Z,99526.19
2022-08-29T14:07:45.073Z,99521.91
2022-08-29T14:10:16.867Z,99534.25
2022-08-29T14:12:48.209Z,99529.16
2022-08-29T14:15:18.929Z,99529.66
2022-08-29T14:17:48.911Z,99524.62
2022-08-29T14:20:19.273Z,99526.88
2022-08-29T14:22:48.087Z,99521.63
2022-08-29T14:25:19.991Z,99519.63
2022-08-29T14:27:50.357Z,99528.41
2022-08-29T14:30:20.855Z,99519.13
2022-08-29T14:32:50.033Z,99525.12
2022-08-29T14:35:26.138Z,99522.06
2022-08-29T14:37:57.165Z,99524.59
2022-08-29T14:40:26.264Z,99520.16
2022-08-29T14:43:00.077Z,99519.59
2022-08-29T14:45:30.679Z,99513.75
2022-08-29T14:48:00.012Z,99519.69
2022-08-29T14:50:28.666Z,99510.31
2022-08-29T14:52:57.245Z,99517.06
2022-08-29T14:55:26.342Z,99512.47
2022-08-29T14:57:55.221Z,99512.56
2022-08-29T15:00:28.912Z,99511.16
2022-08-29T15:02:57.897Z,99514.88
2022-08-29T15:05:26.624Z,99519.44
2022-08-29T15:07:55.934Z,99513.69
2022-08-29T15:10:25.990Z,99513.06
2022-08-29T15:12:54.651Z,99514.25
2022-08-29T15:15:29.765Z,99514.97
2022-08-29T15:18:01.891Z,99514.53
2022-08-29T15:20:36.359Z,99503.09
2022-08-29T15:23:08.059Z,99514.44
2022-08-29T15:25:36.874Z,99521.22
2022-08-29T15:28:06.878Z,99513.97
2022-08-29T15:30:37.106Z,99511.13
2022-08-29T15:33:05.870Z,99517.19
2022-08-29T15:35:34.589Z,99505.34
2022-08-29T15:38:03.524Z,99515.97
2022-08-29T15:40:32.424Z,99512.22
2022-08-29T15:43:01.156Z,99512.59
2022-08-29T15:45:30.228Z,99517.66
2022-08-29T15:48:01.292Z,99522.88
2022-08-29T15:50:30.501Z,99518.78
2022-08-29T15:52:59.166Z,99526.00
2022-08-29T15:55:27.854Z,99514.75
2022-08-29T15:57:56.777Z,99524.16
2022-08-29T16:00:29.765Z,99516.34
2022-08-29T16:03:03.362Z,99514.22
2022-08-29T16:05:33.218Z,99516.34
2022-08-29T16:08:04.804Z,99516.38
2022-08-29T16:10:34.694Z,99518.72
2022-08-29T16:13:04.909Z,99516.53
2022-08-29T16:15:35.198Z,99516.94
2022-08-29T16:18:05.808Z,99518.81
2022-08-29T16:20:34.853Z,99512.31
2022-08-29T16:23:04.744Z,99501.22
2022-08-29T16:25:34.237Z,99505.56
2022-08-29T16:28:03.443Z,99503.31
2022-08-29T16:30:35.042Z,99508.66
2022-08-29T16:33:12.012Z,99510.09
2022-08-29T16:35:40.876Z,99507.00
2022-08-29T16:38:09.508Z,99514.31
2022-08-29T16:40:38.430Z,99521.63
2022-08-29T16:43:07.459Z,99512.66
2022-08-29T16:45:36.220Z,99524.56
2022-08-29T16:48:15.565Z,99517.12
2022-08-29T16:50:47.760Z,99523.03
2022-08-29T16:53:16.417Z,99537.09
2022-08-29T16:55:45.117Z,99531.25
2022-08-29T16:58:31.617Z,99533.28
2022-08-29T17:01:00.267Z,99549.97
2022-08-29T17:03:29.195Z,99554.78
2022-08-29T17:05:59.177Z,99546.31
2022-08-29T17:08:27.092Z,99549.78
2022-08-29T17:10:55.519Z,99553.84
2022-08-29T17:13:23.559Z,99564.38
2022-08-29T17:15:51.551Z,99564.66
2022-08-29T17:18:20.473Z,99566.75
2022-08-29T17:20:49.471Z,99565.09
2022-08-29T17:23:19.938Z,99570.09
2022-08-29T17:25:48.816Z,99572.19
2022-08-29T17:28:18.643Z,99571.00
2022-08-29T17:30:48.967Z,99570.47
2022-08-29T17:33:18.040Z,99575.34
2022-08-29T17:35:47.708Z,99572.88
2022-08-29T17:38:16.916Z,99572.97
2022-08-29T17:40:49.170Z,99574.28
2022-08-29T17:43:20.134Z,99577.03
2022-08-29T17:45:49.560Z,99580.69
2022-08-29T17:48:19.438Z,99590.56
2022-08-29T17:50:48.216Z,99590.88
2022-08-29T17:53:21.287Z,99595.41
2022-08-29T17:55:51.509Z,99604.34
2022-08-29T17:58:21.782Z,99603.22
2022-08-29T18:00:51.648Z,99608.88
2022-08-29T18:03:20.740Z,99613.16
2022-08-29T18:05:49.377Z,99615.56
2022-08-29T18:08:18.140Z,99621.16
2022-08-29T18:10:47.593Z,99626.16
2022-08-29T18:13:21.441Z,99624.53
2022-08-29T18:15:52.636Z,99624.53
2022-08-29T18:18:22.269Z,99630.13
2022-08-29T18:20:51.418Z,99632.00
2022-08-29T18:23:20.056Z,99629.94
2022-08-29T18:25:48.949Z,99626.78
2022-08-29T18:28:19.578Z,99632.16
2022-08-29T18:30:48.385Z,99631.25
2022-08-29T18:33:17.249Z,99649.53
2022-08-29T18:35:46.174Z,99638.31
2022-08-29T18:38:17.659Z,99643.94
2022-08-29T18:40:47.668Z,99648.41
2022-08-29T18:43:23.671Z,99662.28
2022-08-29T18:45:52.871Z,99646.88
2022-08-29T18:48:21.646Z,99652.94
2022-08-29T18:50:50.278Z,99653.69
2022-08-29T18:53:20.717Z,99649.56
2022-08-29T18:55:52.641Z,99650.94
2022-08-29T18:58:24.738Z,99652.47
2022-08-29T19:00:54.422Z,99659.41
2022-08-29T19:03:23.594Z,99656.25
2022-08-29T19:05:53.979Z,99660.22
2022-08-29T19:08:25.633Z,99660.13
2022-08-29T19:10:55.652Z,99660.63
2022-08-29T19:13:26.581Z,99667.13
2022-08-29T19:16:00.274Z,99662.28
2022-08-29T19:18:29.314Z,99670.75
2022-08-29T19:21:02.775Z,99660.59
2022-08-29T19:23:32.888Z,99662.28
2022-08-29T19:26:01.866Z,99663.03
2022-08-29T19:28:32.095Z,99664.34
2022-08-29T19:31:02.569Z,99666.97
2022-08-29T19:33:32.105Z,99671.84
2022-08-29T19:36:01.731Z,99684.53
2022-08-29T19:38:31.646Z,99690.47
2022-08-29T19:41:00.750Z,99695.09
2022-08-29T19:43:32.524Z,99688.31
2022-08-29T19:46:02.558Z,99687.06
2022-08-29T19:48:31.304Z,99688.91
2022-08-29T19:50:59.930Z,99683.44
2022-08-29T19:53:28.917Z,99683.22
2022-08-29T19:55:57.992Z,99681.16
2022-08-29T19:58:31.539Z,99691.44
2022-08-29T20:01:07.501Z,99690.44
2022-08-29T20:03:39.177Z,99688.78
2022-08-29T20:06:08.069Z,99688.78
2022-08-29T20:08:37.420Z,99691.53
2022-08-29T20:11:06.891Z,99688.53
2022-08-29T20:13:36.361Z,99690.22
2022-08-29T20:16:12.477Z,99680.87
2022-08-29T20:18:41.940Z,99691.03
2022-08-29T20:21:11.740Z,99691.53
2022-08-29T20:23:41.541Z,99696.22
2022-08-29T20:26:19.657Z,99689.47
2022-08-29T20:28:49.440Z,99695.03
2022-08-29T20:31:20.475Z,99690.25
2022-08-29T20:33:49.343Z,99685.28
2022-08-29T20:36:38.643Z,99691.13
2022-08-29T20:39:08.761Z,99687.09
2022-08-29T20:41:38.109Z,99693.34
2022-08-29T20:44:09.874Z,99703.81
2022-08-29T20:46:41.369Z,99701.25
2022-08-29T20:49:10.811Z,99698.78
2022-08-29T20:51:41.045Z,99698.00
2022-08-29T20:54:09.702Z,99696.03
2022-08-29T20:56:38.348Z,99694.88
2022-08-29T20:59:07.261Z,99696.34
2022-08-29T21:01:36.316Z,99696.84
2022-08-29T21:04:24.879Z,99694.47
2022-08-29T21:06:55.322Z,99689.00
2022-08-29T21:09:24.106Z,99688.09
2022-08-29T21:11:53.399Z,99690.66
2022-08-29T21:14:23.446Z,99688.69
2022-08-29T21:16:52.268Z,99686.59
2022-08-29T21:19:23.025Z,99681.00
2022-08-29T21:21:52.201Z,99680.56
2022-08-29T21:24:21.536Z,99677.38
2022-08-29T21:26:50.520Z,99680.56
2022-08-29T21:29:22.043Z,99677.59
2022-08-29T21:31:52.193Z,99688.22
2022-08-29T21:34:23.443Z,99688.09
2022-08-29T21:36:52.173Z,99684.62
2022-08-29T21:39:28.012Z,99692.81
2022-08-29T21:42:02.644Z,99689.50
2022-08-29T21:44:32.031Z,99691.47
2022-08-29T21:47:01.189Z,99690.50
2022-08-29T21:49:31.399Z,99684.66
2022-08-29T21:52:01.250Z,99692.41
2022-08-29T21:54:29.871Z,99690.94
2022-08-29T21:56:58.572Z,99689.13
2022-08-29T21:59:28.009Z,99696.87
2022-08-29T22:01:57.064Z,99699.13
2022-08-29T22:04:28.442Z,99699.22
2022-08-29T22:06:59.683Z,99692.53
2022-08-29T22:09:29.161Z,99696.87
2022-08-29T22:11:57.812Z,99691.38
2022-08-29T22:14:47.761Z,99693.69
2022-08-29T22:17:16.383Z,99697.94
2022-08-29T22:19:45.219Z,99703.25
2022-08-29T22:22:16.371Z,99701.13
2022-08-29T22:24:46.223Z,99699.75
2022-08-29T22:27:14.807Z,99705.78
2022-08-29T22:29:43.813Z,99703.47
2022-08-29T22:32:13.133Z,99700.16
2022-08-29T22:34:42.036Z,99710.00
2022-08-29T22:37:10.629Z,99712.13
2022-08-29T22:39:41.131Z,99715.12
2022-08-29T22:42:10.320Z,99721.25
2022-08-29T22:45:02.339Z,99719.16
2022-08-29T22:47:28.427Z,99718.94
2022-08-29T22:49:57.631Z,99718.50
2022-08-29T22:52:26.238Z,99712.13
2022-08-29T22:54:56.156Z,99726.37
2022-08-29T22:57:25.077Z,99724.66
2022-08-29T22:59:53.672Z,99729.44
2022-08-29T23:02:22.425Z,99731.66
2022-08-29T23:04:52.339Z,99733.87
2022-08-29T23:07:21.413Z,99743.13
2022-08-29T23:09:50.748Z,99740.16
2022-08-29T23:12:22.439Z,99740.69
2022-08-29T23:14:51.128Z,99730.81
2022-08-29T23:17:21.038Z,99733.16
2022-08-29T23:19:49.959Z,99733.47
2022-08-29T23:22:19.010Z,99742.16
2022-08-29T23:24:57.966Z,99742.47
2022-08-29T23:27:29.971Z,99739.41
2022-08-29T23:29:59.446Z,99738.88
2022-08-29T23:32:28.898Z,99739.72
2022-08-29T23:34:57.703Z,99747.66
2022-08-29T23:37:26.694Z,99747.66
2022-08-29T23:40:03.551Z,99745.88
2022-08-29T23:42:35.068Z,99750.31
2022-08-29T23:45:03.819Z,99749.91
2022-08-29T23:47:32.858Z,99756.81
2022-08-29T23:50:03.496Z,99754.22
2022-08-29T23:52:32.442Z,99752.25
2022-08-29T23:55:01.912Z,99750.13
2022-08-29T23:57:30.533Z,99748.41
